Etusivu
METAR-TAF:

METAR-TAF

Lentoasemat :

Lagos, Nigeria

Murtala Muhammedin kansainvälinen lentoasema

Leveyspiiri: 06-35N, Pituuspiiri: 003-20E, korkeus merenpinnasta: 40 m

Tämänhetkinen sää

Tämä raportti tehtiin 51 minuuttia sitten, kello 21.00 UTC
Tuuli 2 kn eri suunnista
Lämpötila 27°C
Kosteus 89%
Ilmanpaine 1014 hPa
Näkyvyys: 1600 m
usvaa

METAR: DNMM 122100Z VRB02KT 1600 HZ NSC 27/25 Q1014 NOSIG

Aika: 22:51 (21:51 UTC)

Sääennuste

Tämä raportti tehtiin 6 tuntia ja 1 minuuttia sitten, kello 15.50 UTC
Ennuste voimassa 12. päivästä klo 18 UTC - 13. päivään klo 24 UTC
Tuuli 2 kn eri suunnista
Näkyvyys: 1600 m
usvaa
Tulossa
12. päivästä klo 18 UTC - 12. päivään klo 20 UTC
Näkyvyys: 3000 m

TAF: DNMM 121550Z 1218/1324 VRB02KT 1600 HZ NSC BECMG 1218/1220 3000

Säähavainnot ja -ennusteet yli 4000 lentoasemalta (METAR- ja TAF-raportit).

Käytössä olevat sääasemat on merkitty karttaan keltaisilla ja punaisilla pisteillä.

Aseta hiiri pisteen päälle nähdäksesi sääaseman nimen.

Klikkaa sitten nähdäksesi säähavainnot ja -ennusteet.

Kartan vaihtaminen: klikkaa mustalla rastilla varustettuja vihreitä pisteitä, niin voit zoomata sisään; viivalla varustettua vihreää pistettä, niin voit zoomata ulos tai vihreitä nuolia, niin pääset viereisille kartoille.


METAR-TAF: